Time;durP1;ratioP1;P1;durP2;ratioP2;P2;SDS_P1;SDS_P2;PMS_P1;PMS_P2;Temp;Humidity;BMP_temperature;BMP_pressure;BME280_temperature;BME280_humidity;BME280_pressure;Samples;Min_cycle;Max_cycle;Signal;HPM_P1;HPM_P2
2024/01/30 00:02:22;;;;;;;12.57;10.98;;;;;;;4.27;72.23;99331.16;5027021;28;20587;-72
2024/01/30 00:04:48;;;;;;;15.60;11.80;;;;;;;4.23;72.56;99335.09;5023834;28;20204;-72
2024/01/30 00:07:15;;;;;;;14.80;12.10;;;;;;;4.01;73.39;99323.53;5027324;28;20263;-72
2024/01/30 00:09:43;;;;;;;12.65;10.95;;;;;;;3.80;74.58;99333.34;5021911;28;20514;-73
2024/01/30 00:12:12;;;;;;;16.48;10.85;;;;;;;3.75;74.82;99326.69;5023272;28;20216;-72
2024/01/30 00:14:38;;;;;;;13.57;10.60;;;;;;;3.71;75.18;99329.59;5023667;28;20300;-73
2024/01/30 00:17:05;;;;;;;13.05;11.25;;;;;;;3.77;74.95;99330.94;5024238;28;20289;-72
2024/01/30 00:19:31;;;;;;;13.60;11.05;;;;;;;3.56;75.72;99328.22;5027405;28;20277;-72
2024/01/30 00:21:58;;;;;;;13.68;10.43;;;;;;;3.61;75.86;99325.13;5026476;28;20209;-72
2024/01/30 00:24:25;;;;;;;13.13;11.82;;;;;;;3.60;75.96;99324.28;5023413;28;20756;-72
2024/01/30 00:26:53;;;;;;;12.60;11.30;;;;;;;3.68;75.81;99329.00;5025438;28;21002;-72
2024/01/30 00:29:21;;;;;;;13.90;11.40;;;;;;;3.67;75.92;99330.00;5027125;28;20284;-72
2024/01/30 00:31:48;;;;;;;14.48;12.77;;;;;;;3.76;75.68;99334.59;5023724;28;20333;-72
2024/01/30 00:34:14;;;;;;;14.23;12.20;;;;;;;3.74;75.75;99333.88;5026280;28;20222;-72
2024/01/30 00:36:41;;;;;;;13.98;12.45;;;;;;;3.69;75.84;99336.91;5026238;28;20277;-72
2024/01/30 00:39:09;;;;;;;13.05;11.68;;;;;;;3.67;75.97;99332.66;5025713;28;20244;-73
2024/01/30 00:41:36;;;;;;;13.57;12.18;;;;;;;3.72;75.76;99335.81;5025181;28;20213;-72
2024/01/30 00:44:04;;;;;;;14.35;12.00;;;;;;;3.63;76.05;99337.41;5025390;28;20200;-73
2024/01/30 00:46:31;;;;;;;13.15;11.80;;;;;;;3.70;75.92;99340.44;5026149;28;20292;-73
2024/01/30 00:48:57;;;;;;;14.02;12.45;;;;;;;3.77;75.69;99338.13;5027896;28;20209;-72
2024/01/30 00:51:24;;;;;;;15.20;12.32;;;;;;;3.72;75.87;99335.81;5023611;28;20201;-73
2024/01/30 00:53:51;;;;;;;15.55;12.60;;;;;;;3.68;76.00;99334.38;5026982;28;20333;-72
2024/01/30 00:56:18;;;;;;;16.92;12.85;;;;;;;3.64;76.14;99340.94;5019965;28;20210;-72
2024/01/30 00:58:44;;;;;;;14.00;12.50;;;;;;;3.70;76.27;99337.75;5024207;28;20202;-72
2024/01/30 01:01:12;;;;;;;15.02;12.07;;;;;;;3.83;75.74;99337.63;5025235;28;20236;-72
2024/01/30 01:03:40;;;;;;;15.13;12.85;;;;;;;3.66;76.14;99339.00;5021346;28;20206;-72
2024/01/30 01:06:07;;;;;;;13.57;12.23;;;;;;;3.76;76.13;99336.41;5021865;28;20722;-73
2024/01/30 01:08:33;;;;;;;14.98;12.80;;;;;;;3.81;76.00;99332.38;5023045;28;20216;-72
2024/01/30 01:11:00;;;;;;;14.85;12.50;;;;;;;3.84;75.79;99352.69;5023615;28;20196;-72
2024/01/30 01:13:27;;;;;;;14.50;12.65;;;;;;;3.76;75.97;99336.41;5025413;28;20772;-72
2024/01/30 01:15:53;;;;;;;14.05;12.60;;;;;;;3.68;76.34;99339.72;5025518;28;20201;-71
2024/01/30 01:18:21;;;;;;;15.15;13.02;;;;;;;3.65;76.53;99337.28;5027664;28;20207;-72
2024/01/30 01:20:48;;;;;;;14.60;13.10;;;;;;;3.65;76.55;99340.81;5026477;28;20229;-72
2024/01/30 01:23:14;;;;;;;15.00;12.52;;;;;;;3.58;76.92;99334.25;5028709;28;20272;-71
2024/01/30 01:25:41;;;;;;;14.68;13.18;;;;;;;3.61;77.21;99335.84;5030431;28;20231;-72
2024/01/30 01:28:07;;;;;;;13.90;12.38;;;;;;;3.63;76.99;99334.75;5027792;28;20233;-72
2024/01/30 01:30:34;;;;;;;18.13;13.45;;;;;;;3.65;76.90;99334.63;5029443;28;20206;-72
2024/01/30 01:33:02;;;;;;;15.18;13.27;;;;;;;3.71;76.54;99331.44;5027743;28;20241;-72
2024/01/30 01:35:30;;;;;;;13.57;12.27;;;;;;;3.65;76.93;99339.97;5024015;28;20233;-72
2024/01/30 01:37:57;;;;;;;14.20;12.80;;;;;;;3.59;77.08;99329.75;5027955;28;20223;-72
2024/01/30 01:40:24;;;;;;;15.10;13.07;;;;;;;3.58;77.23;99330.72;5025364;28;21854;-72
2024/01/30 01:42:53;;;;;;;12.45;11.15;;;;;;;3.61;77.08;99331.34;5039754;28;20310;-72
2024/01/30 01:45:20;;;;;;;15.40;12.27;;;;;;;3.54;77.43;99332.84;5027209;28;20202;-72
2024/01/30 01:47:49;;;;;;;14.55;13.05;;;;;;;3.48;77.37;99338.69;5029355;28;20205;-72
2024/01/30 01:50:18;;;;;;;14.98;12.48;;;;;;;3.51;77.16;99332.25;5025437;28;20194;-73
2024/01/30 01:52:47;;;;;;;13.90;12.50;;;;;;;3.42;77.71;99332.97;5028180;28;20198;-72
2024/01/30 01:55:16;;;;;;;15.18;13.05;;;;;;;3.38;77.75;99333.22;5027098;28;20198;-73
2024/01/30 01:57:42;;;;;;;15.07;13.00;;;;;;;3.32;78.01;99328.38;5025830;28;20201;-72
2024/01/30 02:00:10;;;;;;;14.07;12.57;;;;;;;3.28;78.06;99332.28;5029266;28;20233;-73
2024/01/30 02:02:37;;;;;;;15.70;14.10;;;;;;;3.15;78.79;99331.56;5031391;28;20288;-73
2024/01/30 02:05:04;;;;;;;16.85;13.73;;;;;;;3.21;78.76;99331.09;5039865;28;20292;-72
2024/01/30 02:07:30;;;;;;;15.68;13.68;;;;;;;3.20;78.71;99328.53;5029078;28;20198;-73
2024/01/30 02:09:58;;;;;;;15.82;13.20;;;;;;;3.20;78.75;99328.53;5026229;28;20197;-72
2024/01/30 02:12:25;;;;;;;15.80;14.05;;;;;;;3.07;79.07;99335.84;5037664;28;20202;-72
2024/01/30 02:14:51;;;;;;;14.70;13.27;;;;;;;3.06;79.39;99331.47;5026355;28;20218;-72
2024/01/30 02:17:18;;;;;;;14.38;12.40;;;;;;;3.06;79.18;99339.47;5025010;28;20293;-72
2024/01/30 02:19:45;;;;;;;15.27;13.05;;;;;;;3.04;79.11;99339.59;5023443;28;20614;-72
2024/01/30 02:22:12;;;;;;;17.45;13.93;;;;;;;2.97;79.37;99333.03;5024007;28;20599;-73
2024/01/30 02:24:39;;;;;;;14.45;12.95;;;;;;;2.98;79.45;99335.59;5024264;28;20209;-71
2024/01/30 02:27:06;;;;;;;16.13;14.43;;;;;;;2.99;79.17;99337.28;5022903;28;20229;-73
2024/01/30 02:29:32;;;;;;;14.02;12.68;;;;;;;2.98;79.34;99334.75;5024880;28;20559;-72
2024/01/30 02:32:00;;;;;;;15.02;13.30;;;;;;;2.95;79.44;99345.66;5018766;28;20289;-72
2024/01/30 02:34:27;;;;;;;15.00;13.40;;;;;;;2.87;79.58;99340.97;5025474;28;20222;-72
2024/01/30 02:36:53;;;;;;;14.98;13.45;;;;;;;2.94;79.45;99334.13;5028461;28;20288;-72
2024/01/30 02:39:21;;;;;;;14.63;12.63;;;;;;;3.01;79.11;99337.16;5019972;28;20306;-72
2024/01/30 02:41:48;;;;;;;13.75;12.35;;;;;;;2.99;79.20;99331.09;5027069;28;20205;-72
2024/01/30 02:44:14;;;;;;;15.10;13.18;;;;;;;2.97;79.01;99335.72;5027900;28;20205;-74
2024/01/30 02:46:41;;;;;;;15.10;12.30;;;;;;;3.01;78.94;99337.16;5025205;28;20205;-73
2024/01/30 02:49:07;;;;;;;15.25;13.57;;;;;;;2.97;79.14;99338.38;5024743;28;20198;-73
2024/01/30 02:51:34;;;;;;;14.70;13.18;;;;;;;2.85;79.44;99340.22;5024209;28;20651;-72
2024/01/30 02:54:01;;;;;;;14.38;12.88;;;;;;;2.78;79.79;99341.69;5026726;28;20221;-73
2024/01/30 02:56:28;;;;;;;18.15;13.30;;;;;;;2.66;80.54;99346.16;5023656;28;20202;-73
2024/01/30 02:58:56;;;;;;;13.32;12.02;;;;;;;2.78;80.01;99336.34;5028343;28;20201;-72
2024/01/30 03:01:24;;;;;;;16.08;13.20;;;;;;;2.82;79.98;99336.94;5023652;28;20202;-72
2024/01/30 03:03:50;;;;;;;15.25;13.50;;;;;;;2.85;79.99;99334.03;5028108;28;20261;-72
2024/01/30 03:06:17;;;;;;;12.95;11.65;;;;;;;2.87;79.43;99340.09;5029541;28;20208;-72
2024/01/30 03:08:44;;;;;;;15.18;11.85;;;;;;;2.76;80.04;99324.91;5030910;28;20197;-73
2024/01/30 03:11:11;;;;;;;13.32;11.88;;;;;;;2.69;80.55;99335.22;5029844;28;20540;-72
2024/01/30 03:13:40;;;;;;;13.68;12.38;;;;;;;2.74;80.59;99331.34;5028539;28;20230;-73
2024/01/30 03:16:07;;;;;;;13.30;11.80;;;;;;;2.82;80.26;99339.63;5027038;28;20292;-72
2024/01/30 03:18:33;;;;;;;13.18;11.75;;;;;;;2.78;80.45;99328.31;5037424;28;20316;-72
2024/01/30 03:21:00;;;;;;;13.75;12.07;;;;;;;2.78;80.44;99330.13;5030209;28;20555;-72
2024/01/30 03:23:27;;;;;;;13.30;12.00;;;;;;;2.72;80.72;99343.97;5028749;28;20225;-72
2024/01/30 03:25:54;;;;;;;12.68;10.63;;;;;;;2.78;80.62;99330.97;5024351;28;20892;-72
2024/01/30 03:28:20;;;;;;;11.60;10.50;;;;;;;2.74;80.55;99337.53;5023335;28;20211;-72
2024/01/30 03:30:48;;;;;;;12.82;11.38;;;;;;;2.73;80.52;99332.31;5024962;28;20202;-72
2024/01/30 03:33:14;;;;;;;13.80;11.85;;;;;;;2.66;80.90;99339.97;5026830;28;20281;-72
2024/01/30 03:35:42;;;;;;;13.25;11.80;;;;;;;2.50;81.11;99321.63;5025691;28;20193;-72
2024/01/30 03:38:09;;;;;;;13.75;11.30;;;;;;;2.62;81.14;99336.66;5026359;28;20210;-72
2024/01/30 03:40:35;;;;;;;13.50;11.57;;;;;;;2.68;81.12;99344.22;5024935;28;20198;-71
2024/01/30 03:43:02;;;;;;;13.43;11.30;;;;;;;2.70;81.09;99339.59;5026096;28;20212;-72
2024/01/30 03:45:28;;;;;;;11.70;10.60;;;;;;;2.70;81.04;99330.72;5025438;28;20228;-71
2024/01/30 03:47:56;;;;;;;11.57;10.35;;;;;;;2.63;81.43;99338.38;5026057;28;20686;-72
2024/01/30 03:50:23;;;;;;;11.90;10.70;;;;;;;2.65;81.35;99344.44;5024554;28;20237;-72
2024/01/30 03:52:49;;;;;;;12.32;10.98;;;;;;;2.65;81.30;99349.78;5025067;28;20262;-72
2024/01/30 03:55:16;;;;;;;12.73;11.40;;;;;;;2.67;81.14;99342.50;5010046;28;20217;-71
2024/01/30 03:57:42;;;;;;;12.63;11.20;;;;;;;2.65;81.44;99343.59;5005272;28;20305;-72
2024/01/30 04:00:10;;;;;;;11.45;10.35;;;;;;;2.60;81.67;99341.28;5024269;28;20208;-72
2024/01/30 04:02:36;;;;;;;11.88;10.73;;;;;;;2.54;81.75;99340.94;5026330;28;20297;-72
2024/01/30 04:05:05;;;;;;;12.10;10.80;;;;;;;2.62;81.53;99344.69;5026551;28;20201;-71
2024/01/30 04:07:32;;;;;;;12.43;11.10;;;;;;;2.49;82.13;99343.97;5015596;28;20652;-72
2024/01/30 04:09:58;;;;;;;13.73;11.73;;;;;;;2.53;81.97;99349.91;5040432;28;20213;-72
2024/01/30 04:12:26;;;;;;;13.75;11.48;;;;;;;2.47;82.32;99351.25;5022398;28;20201;-72
2024/01/30 04:14:53;;;;;;;13.13;11.32;;;;;;;2.44;82.22;99346.13;5027663;28;20241;-72
2024/01/30 04:17:19;;;;;;;12.60;11.50;;;;;;;2.29;82.59;99347.31;5031010;28;20561;-72
2024/01/30 04:19:46;;;;;;;12.65;11.35;;;;;;;2.33;82.61;99354.13;5036631;28;20216;-72
2024/01/30 04:22:13;;;;;;;13.15;11.85;;;;;;;2.18;82.99;99344.63;5023781;28;20665;-72
2024/01/30 04:24:40;;;;;;;12.63;11.32;;;;;;;2.20;82.98;99343.53;5022614;28;20217;-72
2024/01/30 04:27:07;;;;;;;14.63;12.20;;;;;;;2.17;83.34;99337.56;5017051;28;20206;-72
2024/01/30 04:29:33;;;;;;;13.35;11.73;;;;;;;2.11;83.54;99344.22;5021469;28;20201;-77
2024/01/30 04:32:00;;;;;;;13.02;11.70;;;;;;;2.17;83.49;99326.91;5009249;28;20647;-76
2024/01/30 04:34:29;;;;;;;13.13;11.85;;;;;;;2.15;83.63;99334.19;5020601;28;20228;-77
2024/01/30 04:36:56;;;;;;;12.57;11.38;;;;;;;2.20;83.42;99334.69;5025187;28;20682;-76
2024/01/30 04:39:24;;;;;;;13.05;11.70;;;;;;;2.23;83.34;99335.28;5039101;28;20632;-76
2024/01/30 04:41:50;;;;;;;12.30;11.10;;;;;;;2.19;83.18;99328.47;5028450;28;20258;-75
2024/01/30 04:44:17;;;;;;;12.40;11.10;;;;;;;2.27;82.80;99327.91;5023828;28;20212;-75
2024/01/30 04:46:43;;;;;;;13.70;11.73;;;;;;;2.28;82.54;99334.91;5022694;28;20202;-76
2024/01/30 04:49:10;;;;;;;13.38;11.15;;;;;;;2.31;82.27;99324.84;5026560;28;20197;-72
2024/01/30 04:51:36;;;;;;;12.82;11.52;;;;;;;2.27;82.21;99333.25;5024582;28;20284;-71
2024/01/30 04:54:03;;;;;;;14.20;12.05;;;;;;;2.22;82.22;99332.75;5024749;28;20225;-70
2024/01/30 04:56:31;;;;;;;13.65;11.05;;;;;;;2.16;82.74;99338.53;5023517;28;20213;-69
2024/01/30 04:58:58;;;;;;;13.10;11.80;;;;;;;2.12;82.70;99345.09;5024215;28;20210;-70
2024/01/30 05:01:24;;;;;;;13.40;12.10;;;;;;;2.16;82.74;99346.56;5024595;28;20582;-70
2024/01/30 05:03:51;;;;;;;14.73;12.18;;;;;;;2.03;82.92;99336.81;5029246;28;20256;-69
2024/01/30 05:06:25;;;;;;;13.07;11.77;;;;;;;2.09;83.08;99339.97;5028250;28;20194;-69
2024/01/30 05:08:51;;;;;;;13.65;11.45;;;;;;;1.93;83.14;99326.94;5041922;28;20205;-70
2024/01/30 05:11:18;;;;;;;12.32;11.20;;;;;;;1.96;83.15;99348.03;5026644;28;20209;-70
2024/01/30 05:13:46;;;;;;;14.50;12.20;;;;;;;1.82;83.69;99351.78;5022929;28;20201;-70
2024/01/30 05:16:12;;;;;;;12.85;11.65;;;;;;;1.79;84.14;99343.13;5021569;28;20208;-70
2024/01/30 05:18:39;;;;;;;12.90;11.70;;;;;;;1.84;84.09;99347.19;5023091;28;20624;-69
2024/01/30 05:21:06;;;;;;;13.45;12.15;;;;;;;1.84;84.03;99341.84;5022915;28;20202;-70
2024/01/30 05:23:33;;;;;;;12.02;10.93;;;;;;;1.94;83.76;99342.84;5019532;28;20292;-70
2024/01/30 05:26:00;;;;;;;13.95;12.57;;;;;;;1.90;83.69;99346.72;5022481;28;20198;-70
2024/01/30 05:28:27;;;;;;;13.15;11.82;;;;;;;1.94;83.69;99342.84;5026123;28;20267;-69
2024/01/30 05:30:55;;;;;;;13.80;12.48;;;;;;;2.02;83.29;99351.13;5028781;28;20197;-69
2024/01/30 05:33:22;;;;;;;11.95;10.85;;;;;;;2.02;83.11;99345.78;5029365;28;20290;-70
2024/01/30 05:35:49;;;;;;;12.07;10.90;;;;;;;2.06;82.83;99356.22;5028079;28;20315;-70
2024/01/30 05:38:17;;;;;;;15.00;11.40;;;;;;;2.03;82.73;99352.81;5019931;28;20711;-70
2024/01/30 05:40:43;;;;;;;12.15;11.05;;;;;;;2.10;82.45;99352.34;5025323;28;20303;-70
2024/01/30 05:43:10;;;;;;;12.52;10.52;;;;;;;2.09;82.46;99356.84;5025622;28;20197;-72
2024/01/30 05:45:36;;;;;;;12.10;10.90;;;;;;;2.14;82.32;99351.16;5023799;28;20192;-69
2024/01/30 05:48:05;;;;;;;13.20;11.90;;;;;;;2.13;82.24;99357.47;5023953;28;20798;-71
2024/01/30 05:50:32;;;;;;;13.10;11.80;;;;;;;2.14;82.19;99364.50;5025080;28;20285;-73
2024/01/30 05:52:58;;;;;;;14.18;12.10;;;;;;;2.07;82.22;99360.59;5023944;28;20202;-73
2024/01/30 05:55:25;;;;;;;11.48;10.40;;;;;;;2.07;82.42;99363.25;5025734;28;20340;-73
2024/01/30 05:57:52;;;;;;;13.63;10.45;;;;;;;2.20;81.87;99358.72;5026604;28;20285;-72
2024/01/30 06:00:19;;;;;;;12.57;11.38;;;;;;;2.20;81.48;99364.06;5024319;28;20292;-73
2024/01/30 06:02:45;;;;;;;13.05;11.60;;;;;;;2.11;81.97;99359.41;5039624;28;20215;-73
2024/01/30 06:05:14;;;;;;;12.48;11.27;;;;;;;2.17;81.73;99375.81;5016266;28;20208;-75
2024/01/30 06:07:40;;;;;;;11.75;10.55;;;;;;;2.19;81.73;99367.69;5019533;28;20194;-76
2024/01/30 06:10:09;;;;;;;12.35;10.95;;;;;;;2.17;81.81;99366.94;5026647;28;20284;-75
2024/01/30 06:12:35;;;;;;;11.45;10.32;;;;;;;2.14;81.62;99368.03;5029347;28;20201;-75
2024/01/30 06:15:05;;;;;;;12.13;10.73;;;;;;;2.10;81.93;99363.88;5030996;28;20226;-75
2024/01/30 06:17:33;;;;;;;12.80;11.60;;;;;;;2.14;81.89;99356.50;5028061;28;20189;-75
2024/01/30 06:19:59;;;;;;;11.45;10.30;;;;;;;2.09;81.96;99362.19;5032272;28;20560;-74
2024/01/30 06:22:27;;;;;;;12.52;11.27;;;;;;;2.03;82.24;99351.97;5031326;28;20233;-73
2024/01/30 06:24:54;;;;;;;13.55;12.18;;;;;;;2.02;82.30;99361.78;5025984;28;20284;-73
2024/01/30 06:27:20;;;;;;;13.18;11.70;;;;;;;1.97;82.12;99358.63;5022773;28;20256;-73
2024/01/30 06:29:47;;;;;;;13.57;12.23;;;;;;;1.96;82.53;99356.91;5026669;28;20214;-73
2024/01/30 06:32:13;;;;;;;13.20;11.00;;;;;;;1.89;82.56;99357.50;5029618;28;20205;-73
2024/01/30 06:34:44;;;;;;;13.32;11.93;;;;;;;1.95;82.70;99349.88;5029806;28;20221;-73
2024/01/30 06:37:12;;;;;;;13.68;12.27;;;;;;;1.87;82.81;99362.09;5028433;28;20664;-74
2024/01/30 06:39:40;;;;;;;13.02;11.73;;;;;;;1.90;82.84;99368.06;5041375;28;20225;-74
2024/01/30 06:42:07;;;;;;;13.25;11.55;;;;;;;1.90;82.54;99364.56;5018825;28;20209;-71
2024/01/30 06:44:34;;;;;;;13.50;12.30;;;;;;;1.77;83.15;99364.59;5027999;28;20202;-72
2024/01/30 06:47:01;;;;;;;12.60;11.30;;;;;;;1.74;83.25;99370.16;5027128;28;20400;-72
2024/01/30 06:49:27;;;;;;;13.73;12.43;;;;;;;1.75;83.18;99369.19;5026841;28;22303;-72
2024/01/30 06:51:54;;;;;;;13.30;12.00;;;;;;;1.73;83.23;99364.94;5027810;28;20566;-72
2024/01/30 06:54:20;;;;;;;12.82;11.40;;;;;;;1.73;83.28;99365.78;5027080;28;20197;-72
2024/01/30 06:56:48;;;;;;;15.05;12.75;;;;;;;1.62;83.60;99374.63;5027623;28;20296;-72
2024/01/30 06:59:22;;;;;;;13.80;12.40;;;;;;;1.76;83.39;99373.56;5026040;28;20212;-72
2024/01/30 07:01:49;;;;;;;14.25;11.95;;;;;;;1.85;82.82;99374.72;5026208;28;20655;-72
2024/01/30 07:04:15;;;;;;;12.52;11.15;;;;;;;1.91;82.55;99379.59;5027362;28;20208;-71
2024/01/30 07:06:42;;;;;;;13.10;11.82;;;;;;;2.02;82.20;99385.81;5027408;28;20292;-72
2024/01/30 07:09:09;;;;;;;12.95;11.75;;;;;;;1.84;82.85;99387.22;5027179;28;20316;-72
2024/01/30 07:11:35;;;;;;;13.65;11.75;;;;;;;1.96;82.30;99388.09;5027250;28;20682;-72
2024/01/30 07:14:04;;;;;;;12.70;11.40;;;;;;;1.96;82.58;99388.09;5036680;28;20206;-72
2024/01/30 07:16:31;;;;;;;12.13;11.02;;;;;;;1.99;82.53;99388.72;5027997;28;20221;-72
2024/01/30 07:18:59;;;;;;;12.23;11.13;;;;;;;2.05;82.24;99389.22;5027691;28;20189;-73
2024/01/30 07:21:28;;;;;;;13.20;11.90;;;;;;;1.97;82.18;99382.63;5025836;28;20194;-72
2024/01/30 07:23:54;;;;;;;12.63;11.32;;;;;;;1.96;82.25;99383.59;5026745;28;20202;-72
2024/01/30 07:26:21;;;;;;;11.98;10.77;;;;;;;2.17;81.66;99385.66;5027249;28;20205;-72
2024/01/30 07:28:47;;;;;;;12.13;10.93;;;;;;;2.27;80.98;99387.50;5026429;28;20228;-72
2024/01/30 07:31:15;;;;;;;11.60;10.50;;;;;;;2.14;81.30;99384.06;5036274;28;20212;-71
2024/01/30 07:33:42;;;;;;;13.63;11.70;;;;;;;2.12;81.43;99386.00;5026916;28;20702;-72
2024/01/30 07:36:10;;;;;;;12.90;11.60;;;;;;;2.23;81.12;99386.03;5021418;28;20226;-72
2024/01/30 07:38:37;;;;;;;12.52;11.23;;;;;;;2.15;81.33;99380.41;5027575;28;20198;-72
2024/01/30 07:41:03;;;;;;;11.65;10.45;;;;;;;2.24;81.16;99378.88;5024737;28;20936;-72
2024/01/30 07:43:30;;;;;;;13.60;11.40;;;;;;;2.38;80.56;99384.00;5024624;28;20209;-72
2024/01/30 07:45:57;;;;;;;13.27;11.80;;;;;;;2.35;80.65;99379.75;5025269;28;20202;-73
2024/01/30 07:48:24;;;;;;;12.40;11.27;;;;;;;2.28;80.73;99385.66;5025191;28;20205;-72
2024/01/30 07:50:51;;;;;;;12.43;11.13;;;;;;;2.16;80.94;99386.59;5027244;28;20216;-72
2024/01/30 07:53:17;;;;;;;11.60;10.35;;;;;;;2.26;81.15;99384.97;5026359;28;20206;-72
2024/01/30 07:55:46;;;;;;;14.73;11.77;;;;;;;2.31;80.75;99385.44;5025758;28;20222;-72
2024/01/30 07:58:13;;;;;;;12.82;11.30;;;;;;;2.36;80.58;99383.25;5037294;28;20214;-72
2024/01/30 08:00:39;;;;;;;12.93;11.45;;;;;;;2.30;80.59;99389.91;5025606;28;20293;-72
2024/01/30 08:03:06;;;;;;;12.90;11.50;;;;;;;2.29;80.54;99390.88;5027136;28;20209;-73
2024/01/30 08:05:34;;;;;;;13.05;11.70;;;;;;;2.21;81.00;99390.63;5026313;28;20324;-72
2024/01/30 08:08:00;;;;;;;13.15;11.75;;;;;;;2.25;81.05;99396.59;5027893;28;20209;-72
2024/01/30 08:10:27;;;;;;;15.18;12.32;;;;;;;2.30;80.91;99391.75;5027112;28;20209;-72
2024/01/30 08:12:54;;;;;;;14.30;12.82;;;;;;;2.34;80.34;99393.22;5026656;28;20387;-72
2024/01/30 08:15:20;;;;;;;13.00;11.80;;;;;;;2.36;80.52;99385.94;5025943;28;20627;-72
2024/01/30 08:17:47;;;;;;;14.80;12.30;;;;;;;2.48;80.21;99386.81;5026404;28;20607;-72
2024/01/30 08:20:13;;;;;;;12.95;11.65;;;;;;;2.58;79.75;99393.16;5023137;28;20204;-72
2024/01/30 08:22:41;;;;;;;13.80;12.05;;;;;;;2.80;79.22;99389.66;5023727;28;20684;-72
2024/01/30 08:25:09;;;;;;;13.90;12.50;;;;;;;2.88;78.64;99389.94;5026461;28;20202;-72
2024/01/30 08:27:38;;;;;;;13.52;11.88;;;;;;;2.88;78.39;99387.25;5024811;28;20225;-72
2024/01/30 08:30:06;;;;;;;13.85;12.40;;;;;;;2.97;78.31;99389.19;5025808;28;20297;-72
2024/01/30 08:32:32;;;;;;;12.90;11.10;;;;;;;3.09;77.55;99380.19;5025233;28;20293;-72
2024/01/30 08:34:59;;;;;;;13.45;11.10;;;;;;;3.30;76.83;99385.66;5018995;28;20214;-72
2024/01/30 08:37:26;;;;;;;13.80;11.13;;;;;;;3.41;75.96;99379.44;5026382;28;20316;-73
2024/01/30 08:39:54;;;;;;;12.35;10.95;;;;;;;3.55;75.68;99387.22;5024233;28;20297;-72
2024/01/30 08:42:22;;;;;;;12.45;11.23;;;;;;;3.73;75.22;99391.06;5025857;28;20209;-72
2024/01/30 08:44:49;;;;;;;12.10;10.88;;;;;;;3.99;74.18;99384.41;5026046;28;20212;-73
2024/01/30 08:47:16;;;;;;;10.73;9.63;;;;;;;4.11;73.71;99377.19;5023489;28;20277;-73
2024/01/30 08:49:44;;;;;;;12.43;11.13;;;;;;;4.30;72.71;99380.00;5022503;28;20206;-72
2024/01/30 08:52:10;;;;;;;12.32;11.00;;;;;;;4.27;72.87;99385.63;5024925;28;20197;-72
2024/01/30 08:54:37;;;;;;;12.25;11.15;;;;;;;4.47;72.12;99380.41;5026337;28;20201;-73
2024/01/30 08:57:05;;;;;;;10.82;9.82;;;;;;;5.12;70.70;99381.91;5021131;28;20336;-73
2024/01/30 08:59:33;;;;;;;14.05;10.35;;;;;;;5.14;69.48;99385.31;5024022;28;20718;-73
2024/01/30 09:02:00;;;;;;;11.57;9.93;;;;;;;4.96;69.73;99385.06;5022488;28;20217;-79
2024/01/30 09:04:26;;;;;;;12.30;11.20;;;;;;;4.71;70.79;99389.03;5006312;28;20198;-72
2024/01/30 09:06:53;;;;;;;12.02;10.90;;;;;;;4.85;70.68;99395.91;5025503;28;20848;-73
2024/01/30 09:09:20;;;;;;;11.02;9.93;;;;;;;4.82;70.65;99396.16;5026204;28;20571;-72
2024/01/30 09:11:47;;;;;;;12.20;11.00;;;;;;;4.99;70.12;99400.91;5025337;28;20664;-72
2024/01/30 09:14:14;;;;;;;11.90;10.55;;;;;;;4.91;70.54;99403.41;5026308;28;20204;-72
2024/01/30 09:16:49;;;;;;;10.77;9.55;;;;;;;4.98;70.44;99402.72;5007642;28;20225;-73
2024/01/30 09:19:15;;;;;;;13.82;10.70;;;;;;;4.91;70.48;99408.75;5035259;28;20200;-73
2024/01/30 09:21:42;;;;;;;11.40;10.30;;;;;;;5.23;70.20;99401.44;5025440;28;20215;-72
2024/01/30 09:24:08;;;;;;;11.85;10.60;;;;;;;5.22;69.08;99399.72;5025447;28;20269;-73
2024/01/30 09:26:35;;;;;;;12.10;10.90;;;;;;;5.37;69.28;99408.28;5026939;28;20567;-72
2024/01/30 09:29:04;;;;;;;12.57;10.48;;;;;;;5.59;68.50;99401.84;5025121;28;20220;-72
2024/01/30 09:31:31;;;;;;;11.30;10.30;;;;;;;5.95;66.76;99398.56;5024802;28;20229;-73
2024/01/30 09:33:58;;;;;;;11.75;10.50;;;;;;;6.22;66.00;99399.72;5024898;28;20198;-73
2024/01/30 09:36:25;;;;;;;11.68;9.82;;;;;;;6.26;65.82;99401.13;5026164;28;20220;-72
2024/01/30 09:38:51;;;;;;;10.90;9.82;;;;;;;6.51;64.96;99400.56;5023957;28;20206;-73
2024/01/30 09:41:20;;;;;;;10.88;9.85;;;;;;;6.29;65.24;99404.38;5024918;28;20194;-73
2024/01/30 09:43:49;;;;;;;10.93;9.93;;;;;;;6.17;66.02;99402.84;5029720;28;20215;-73
2024/01/30 09:46:18;;;;;;;10.80;9.70;;;;;;;6.17;66.95;99404.69;5027948;28;20209;-72
2024/01/30 09:48:47;;;;;;;10.65;9.55;;;;;;;6.59;66.57;99397.16;5028318;28;20213;-72
2024/01/30 09:51:15;;;;;;;10.82;9.90;;;;;;;6.80;65.21;99400.53;5029783;28;20238;-73
2024/01/30 09:53:43;;;;;;;10.35;9.25;;;;;;;7.01;64.25;99397.66;5027793;28;20216;-73
2024/01/30 09:56:11;;;;;;;10.75;9.75;;;;;;;7.20;63.25;99408.34;5028268;28;20339;-73
2024/01/30 09:58:39;;;;;;;11.20;10.20;;;;;;;7.51;63.00;99405.38;5031265;28;20702;-73
2024/01/30 10:01:06;;;;;;;12.20;10.60;;;;;;;7.67;61.66;99405.59;5027455;28;20782;-73
2024/01/30 10:03:32;;;;;;;11.02;10.02;;;;;;;7.92;60.63;99404.88;5029128;28;20202;-73
2024/01/30 10:06:00;;;;;;;10.35;9.30;;;;;;;8.23;60.21;99396.41;5028176;28;20341;-73
2024/01/30 10:08:29;;;;;;;10.50;9.50;;;;;;;8.52;58.76;99402.44;5026398;28;20221;-73
2024/01/30 10:10:55;;;;;;;10.77;9.68;;;;;;;8.46;58.60;99397.66;5026068;28;20209;-73
2024/01/30 10:13:22;;;;;;;12.10;10.90;;;;;;;8.66;58.33;99399.22;5028640;28;20200;-73
2024/01/30 10:15:48;;;;;;;10.75;9.75;;;;;;;8.56;58.12;99393.03;5030149;28;20710;-73
2024/01/30 10:18:15;;;;;;;10.43;9.48;;;;;;;8.57;58.50;99389.34;5029204;28;20245;-73
2024/01/30 10:20:42;;;;;;;10.60;9.50;;;;;;;8.57;58.50;99393.91;5026454;28;20209;-73
2024/01/30 10:23:10;;;;;;;10.60;9.70;;;;;;;8.59;58.88;99391.88;5025307;28;20290;-73
2024/01/30 10:25:36;;;;;;;11.18;10.05;;;;;;;8.44;58.85;99398.84;5030750;28;20197;-73
2024/01/30 10:28:03;;;;;;;11.80;10.70;;;;;;;8.41;59.42;99390.06;5026669;28;20256;-73
2024/01/30 10:30:30;;;;;;;11.77;10.57;;;;;;;8.56;59.36;99392.19;5029919;28;20214;-73
2024/01/30 10:32:57;;;;;;;10.85;9.57;;;;;;;8.37;59.64;99385.97;5028065;28;21080;-73
2024/01/30 10:35:23;;;;;;;11.10;10.00;;;;;;;8.37;59.32;99382.44;5010586;28;20210;-73
2024/01/30 10:37:50;;;;;;;12.77;10.43;;;;;;;8.32;59.73;99384.72;5029070;28;20200;-73
2024/01/30 10:40:18;;;;;;;11.88;10.57;;;;;;;8.44;59.97;99388.91;5028394;28;20240;-73
2024/01/30 10:42:45;;;;;;;11.60;10.43;;;;;;;8.44;59.58;99377.28;5029366;28;20292;-73
2024/01/30 10:45:15;;;;;;;13.60;10.07;;;;;;;8.40;59.96;99369.50;5047564;28;20205;-73
2024/01/30 10:47:44;;;;;;;11.20;10.13;;;;;;;8.49;60.38;99378.47;5028093;28;20206;-72
2024/01/30 10:50:12;;;;;;;11.95;10.35;;;;;;;8.58;60.55;99372.16;5026509;28;20267;-73
2024/01/30 10:52:39;;;;;;;10.88;9.77;;;;;;;8.59;60.21;99373.84;5027619;28;20652;-73
2024/01/30 10:55:07;;;;;;;10.93;9.88;;;;;;;8.53;60.22;99365.53;5027951;28;20252;-73
2024/01/30 10:57:36;;;;;;;10.98;9.93;;;;;;;8.51;60.21;99371.06;5029394;28;20323;-73
2024/01/30 11:00:10;;;;;;;11.60;10.40;;;;;;;8.55;59.60;99367.06;5044784;28;20198;-73
2024/01/30 11:02:37;;;;;;;10.93;10.00;;;;;;;8.85;59.11;99371.16;5028466;28;20208;-73
2024/01/30 11:05:05;;;;;;;12.05;9.80;;;;;;;8.86;58.44;99372.00;5031365;28;20197;-73
2024/01/30 11:07:32;;;;;;;10.30;9.30;;;;;;;8.80;58.90;99373.50;5030644;28;20229;-72
2024/01/30 11:10:03;;;;;;;11.90;10.00;;;;;;;8.95;59.22;99371.06;5028306;28;20233;-73
2024/01/30 11:12:33;;;;;;;11.90;9.68;;;;;;;9.21;58.65;99371.03;5027672;28;20670;-73
2024/01/30 11:15:05;;;;;;;11.82;10.25;;;;;;;9.39;57.85;99364.56;5029629;28;20208;-73
2024/01/30 11:17:45;;;;;;;10.30;9.30;;;;;;;9.64;57.14;99368.22;5031700;28;20293;-73
2024/01/30 11:20:14;;;;;;;10.65;9.55;;;;;;;9.54;57.27;99364.78;5028975;28;20208;-73
2024/01/30 11:22:42;;;;;;;9.80;8.90;;;;;;;9.86;56.97;99371.31;5030007;28;20198;-73
2024/01/30 11:25:12;;;;;;;10.68;9.70;;;;;;;10.21;55.08;99370.25;5030232;28;20198;-73
2024/01/30 11:27:39;;;;;;;10.68;9.48;;;;;;;10.36;54.64;99364.00;5029361;28;20194;-73